Time;durP1;ratioP1;P1;durP2;ratioP2;P2;SDS_P1;SDS_P2;PMS_P1;PMS_P2;Temp;Humidity;BMP_temperature;BMP_pressure;BME280_temperature;BME280_humidity;BME280_pressure;Samples;Min_cycle;Max_cycle;Signal;HPM_P1;HPM_P2
2023/05/24 00:00:45;;;;;;;5.10;4.60;;;14.50;99.90;;;;;;5093555;27;20236;-33
2023/05/24 00:03:14;;;;;;;4.70;4.30;;;14.40;99.90;;;;;;5111069;27;20199;-34
2023/05/24 00:05:40;;;;;;;5.33;4.00;;;14.50;99.90;;;;;;5098047;28;20253;-34
2023/05/24 00:08:05;;;;;;;5.43;4.70;;;14.30;99.90;;;;;;5104099;27;20180;-37
2023/05/24 00:10:31;;;;;;;5.77;4.47;;;14.30;99.90;;;;;;5112872;28;20190;-34
2023/05/24 00:12:57;;;;;;;6.03;4.20;;;14.30;99.90;;;;;;5113079;27;20229;-33
2023/05/24 00:15:23;;;;;;;5.43;4.57;;;14.30;99.90;;;;;;5102991;28;20183;-34
2023/05/24 00:17:49;;;;;;;4.80;4.30;;;14.30;99.90;;;;;;5111499;27;20175;-34
2023/05/24 00:20:14;;;;;;;5.37;4.27;;;14.30;99.90;;;;;;5113186;28;20183;-34
2023/05/24 00:22:41;;;;;;;4.50;4.10;;;14.30;99.90;;;;;;5102616;28;20208;-34
2023/05/24 00:25:07;;;;;;;4.70;4.10;;;14.10;99.90;;;;;;5112904;27;20195;-34
2023/05/24 00:27:35;;;;;;;5.60;4.43;;;14.00;99.90;;;;;;5104798;28;20180;-34
2023/05/24 00:30:01;;;;;;;6.30;4.23;;;13.90;99.90;;;;;;5082963;27;20203;-33
2023/05/24 00:32:27;;;;;;;7.87;4.30;;;13.80;99.90;;;;;;5081262;28;20215;-36
2023/05/24 00:34:53;;;;;;;6.03;4.30;;;13.90;99.90;;;;;;5115038;27;20195;-34
2023/05/24 00:37:19;;;;;;;5.63;4.17;;;13.80;99.90;;;;;;5133142;27;20172;-33
2023/05/24 00:39:44;;;;;;;4.30;3.80;;;13.80;99.90;;;;;;5094954;28;20571;-36
2023/05/24 00:42:10;;;;;;;6.43;4.23;;;13.70;99.90;;;;;;5115379;27;20187;-35
2023/05/24 00:44:36;;;;;;;5.20;4.30;;;13.80;99.90;;;;;;5104961;27;20200;-37
2023/05/24 00:47:02;;;;;;;5.73;4.10;;;13.80;99.90;;;;;;5113571;27;20178;-33
2023/05/24 00:49:28;;;;;;;5.77;4.00;;;13.80;99.90;;;;;;5105373;28;20183;-34
2023/05/24 00:51:54;;;;;;;7.73;4.23;;;13.80;99.90;;;;;;5103995;27;20199;-34
2023/05/24 00:54:20;;;;;;;5.03;3.73;;;13.80;99.90;;;;;;5087261;27;20200;-33
2023/05/24 00:56:47;;;;;;;5.60;4.00;;;13.80;99.90;;;;;;5098462;27;20267;-34
2023/05/24 00:59:13;;;;;;;4.63;3.77;;;13.90;99.90;;;;;;5101160;27;20175;-36
2023/05/24 01:01:40;;;;;;;5.57;4.13;;;13.90;99.90;;;;;;5105505;28;20271;-38
2023/05/24 01:04:06;;;;;;;5.37;3.87;;;13.90;99.90;;;;;;5112721;27;20206;-34
2023/05/24 01:06:50;;;;;;;5.13;3.60;;;13.80;99.90;;;;;;5099608;27;20176;-34
2023/05/24 01:09:32;;;;;;;4.63;3.87;;;13.80;99.90;;;;;;5116395;27;20189;-33
2023/05/24 01:12:03;;;;;;;5.37;3.87;;;13.70;99.90;;;;;;5102548;27;20221;-33
2023/05/24 01:15:04;;;;;;;7.03;4.00;;;13.70;99.90;;;;;;5098785;27;20245;-34
2023/05/24 01:17:41;;;;;;;5.37;4.03;;;13.70;99.90;;;;;;5112430;27;20179;-34
2023/05/24 01:20:10;;;;;;;5.63;3.87;;;13.60;99.90;;;;;;5095540;28;20175;-32
2023/05/24 01:23:00;;;;;;;6.17;4.03;;;13.50;99.90;;;;;;5095829;28;20184;-34
2023/05/24 01:25:40;;;;;;;5.77;4.10;;;13.50;99.90;;;;;;5100751;28;20195;-36
2023/05/24 01:28:10;;;;;;;5.83;4.10;;;13.50;99.90;;;;;;5111567;27;20185;-34
2023/05/24 01:30:36;;;;;;;8.33;3.83;;;13.50;99.90;;;;;;5098974;27;20585;-36
2023/05/24 01:33:02;;;;;;;6.50;4.20;;;13.40;99.90;;;;;;5102316;28;20218;-33
2023/05/24 01:35:28;;;;;;;6.40;3.67;;;13.40;99.90;;;;;;5114012;28;20180;-34
2023/05/24 01:37:54;;;;;;;5.93;3.70;;;13.40;99.90;;;;;;5095364;27;20191;-33
2023/05/24 01:40:20;;;;;;;6.23;4.00;;;13.40;99.90;;;;;;5096365;28;20183;-34
2023/05/24 01:43:02;;;;;;;5.37;3.30;;;13.40;99.90;;;;;;5100343;27;20186;-34
2023/05/24 01:45:48;;;;;;;5.60;3.80;;;13.30;99.90;;;;;;5103025;28;20244;-34
2023/05/24 01:48:36;;;;;;;5.77;3.77;;;13.40;99.90;;;;;;5086274;27;20206;-37
2023/05/24 01:51:07;;;;;;;5.37;3.70;;;13.40;99.90;;;;;;5109926;27;20749;-34
2023/05/24 01:53:38;;;;;;;9.30;3.60;;;13.50;99.90;;;;;;5106638;28;20192;-34
2023/05/24 01:56:06;;;;;;;7.73;3.73;;;13.50;99.90;;;;;;5095242;27;20207;-33
2023/05/24 01:58:33;;;;;;;6.73;3.70;;;13.50;99.90;;;;;;5104953;28;20168;-33
2023/05/24 02:00:59;;;;;;;4.00;3.60;;;13.50;99.90;;;;;;5094520;28;20205;-35
2023/05/24 02:03:25;;;;;;;6.43;3.50;;;13.50;99.90;;;;;;5097000;27;20238;-33
2023/05/24 02:05:51;;;;;;;6.67;4.07;;;13.60;99.90;;;;;;5098217;27;20210;-36
2023/05/24 02:08:17;;;;;;;5.67;3.30;;;13.60;99.90;;;;;;5095790;27;20212;-33
2023/05/24 02:10:44;;;;;;;4.20;3.53;;;13.60;99.90;;;;;;5109427;28;20176;-33
2023/05/24 02:13:10;;;;;;;5.30;4.07;;;13.70;99.90;;;;;;5109876;27;20263;-35
2023/05/24 02:15:36;;;;;;;5.43;3.43;;;13.70;99.90;;;;;;5107769;28;20176;-33
2023/05/24 02:18:02;;;;;;;7.07;4.07;;;13.70;99.90;;;;;;5094935;28;20200;-33
2023/05/24 02:20:35;;;;;;;4.37;3.77;;;13.70;99.90;;;;;;5109182;28;20218;-34
2023/05/24 02:23:03;;;;;;;4.30;3.73;;;13.70;99.90;;;;;;5077796;28;20192;-36
2023/05/24 02:25:30;;;;;;;6.43;3.80;;;13.70;99.90;;;;;;5124984;27;20172;-35
2023/05/24 02:27:57;;;;;;;5.27;3.90;;;13.50;99.90;;;;;;5132971;27;20246;-35
2023/05/24 02:30:23;;;;;;;6.67;3.93;;;13.50;99.90;;;;;;5115167;27;20182;-35
2023/05/24 02:32:48;;;;;;;6.77;3.90;;;13.50;99.90;;;;;;5115089;27;20293;-36
2023/05/24 02:35:14;;;;;;;4.10;3.47;;;13.50;99.90;;;;;;5114795;27;20167;-33
2023/05/24 02:37:40;;;;;;;5.37;3.77;;;13.50;99.90;;;;;;5094320;28;20180;-33
2023/05/24 02:40:07;;;;;;;6.00;3.67;;;13.50;99.90;;;;;;5112912;28;20242;-32
2023/05/24 02:42:33;;;;;;;5.40;3.67;;;13.50;99.90;;;;;;5077637;28;20179;-34
2023/05/24 02:44:59;;;;;;;6.47;3.70;;;13.40;99.90;;;;;;5095036;27;20212;-34
2023/05/24 02:47:28;;;;;;;6.97;3.63;;;13.40;99.90;;;;;;5131774;27;20179;-33
2023/05/24 02:49:54;;;;;;;7.43;3.63;;;13.40;99.90;;;;;;5114692;27;20250;-35
2023/05/24 02:52:21;;;;;;;5.03;3.50;;;13.30;99.90;;;;;;5112673;27;20203;-35
2023/05/24 02:54:51;;;;;;;5.60;3.87;;;13.30;99.90;;;;;;5113711;27;20222;-34
2023/05/24 02:57:18;;;;;;;7.77;4.10;;;13.30;99.90;;;;;;5097559;27;20172;-35
2023/05/24 02:59:44;;;;;;;5.57;3.80;;;13.10;99.90;;;;;;5102053;27;20171;-35
2023/05/24 03:02:14;;;;;;;6.93;3.67;;;13.10;99.90;;;;;;5114543;27;20210;-34
2023/05/24 03:04:40;;;;;;;9.67;3.93;;;13.10;99.90;;;;;;5114697;27;20219;-33
2023/05/24 03:07:10;;;;;;;9.47;3.90;;;13.10;99.90;;;;;;5115270;27;20179;-33
2023/05/24 03:09:35;;;;;;;7.37;3.57;;;13.00;99.90;;;;;;5106509;27;20175;-33
2023/05/24 03:12:01;;;;;;;5.77;3.83;;;12.90;99.90;;;;;;5114549;27;20218;-33
2023/05/24 03:14:29;;;;;;;9.17;3.63;;;13.00;99.90;;;;;;5107972;28;20207;-33
2023/05/24 03:16:54;;;;;;;5.33;3.47;;;13.00;99.90;;;;;;5090030;28;20179;-35
2023/05/24 03:19:21;;;;;;;7.57;3.90;;;13.00;99.90;;;;;;5097732;28;20181;-33
2023/05/24 03:21:47;;;;;;;8.47;3.77;;;13.00;99.90;;;;;;5086416;28;20186;-34
2023/05/24 03:24:13;;;;;;;7.97;3.93;;;12.90;99.90;;;;;;5112924;27;20199;-35
2023/05/24 03:26:39;;;;;;;9.07;3.87;;;12.80;99.90;;;;;;5102662;27;20170;-39
2023/05/24 03:29:06;;;;;;;7.03;3.20;;;12.90;99.90;;;;;;5118803;27;20180;-34
2023/05/24 03:31:35;;;;;;;6.10;3.77;;;12.80;99.90;;;;;;5078883;28;20225;-35
2023/05/24 03:34:01;;;;;;;8.93;3.90;;;12.80;99.90;;;;;;5094056;28;20192;-33
2023/05/24 03:36:28;;;;;;;9.47;4.30;;;12.80;99.90;;;;;;5086630;28;20258;-32
2023/05/24 03:38:56;;;;;;;7.77;4.27;;;12.80;99.90;;;;;;5109989;27;20375;-33
2023/05/24 03:41:24;;;;;;;7.87;4.60;;;12.70;99.90;;;;;;5107380;27;20191;-33
2023/05/24 03:43:51;;;;;;;8.70;4.03;;;12.70;99.90;;;;;;5108350;27;20275;-32
2023/05/24 03:46:19;;;;;;;11.27;4.67;;;12.80;99.90;;;;;;5096238;27;20667;-33
2023/05/24 03:48:45;;;;;;;8.60;4.37;;;12.80;99.90;;;;;;5099199;28;20237;-33
2023/05/24 03:51:13;;;;;;;12.30;4.27;;;12.90;99.90;;;;;;5114749;27;20203;-34
2023/05/24 03:53:40;;;;;;;6.80;3.93;;;12.80;99.90;;;;;;5128515;27;20190;-35
2023/05/24 03:56:05;;;;;;;7.17;4.10;;;12.80;99.90;;;;;;5112868;27;20179;-33
2023/05/24 03:58:32;;;;;;;7.17;3.83;;;12.80;99.90;;;;;;5099552;27;20271;-33
2023/05/24 04:00:58;;;;;;;8.13;3.60;;;12.70;99.90;;;;;;5095265;28;20265;-33
2023/05/24 04:03:28;;;;;;;10.00;4.30;;;12.80;99.90;;;;;;5110545;28;20205;-33
2023/05/24 04:05:54;;;;;;;8.10;3.37;;;12.80;99.90;;;;;;5101900;27;20181;-32
2023/05/24 04:08:21;;;;;;;7.50;3.60;;;12.80;99.90;;;;;;5096426;28;20228;-33
2023/05/24 04:10:46;;;;;;;12.80;4.20;;;12.90;99.90;;;;;;5130419;28;20170;-33
2023/05/24 04:13:12;;;;;;;7.50;3.67;;;12.90;99.90;;;;;;5109077;28;20220;-33
2023/05/24 04:15:38;;;;;;;8.00;4.00;;;13.00;99.90;;;;;;5101562;28;20176;-36
2023/05/24 04:18:04;;;;;;;7.20;4.07;;;13.00;99.90;;;;;;5096556;28;20175;-34
2023/05/24 04:20:35;;;;;;;8.70;4.13;;;12.90;99.90;;;;;;5095853;28;20232;-35
2023/05/24 04:23:01;;;;;;;8.17;4.03;;;12.90;99.90;;;;;;5100757;28;20207;-33
2023/05/24 04:25:28;;;;;;;8.10;4.10;;;12.90;99.90;;;;;;5099357;28;20441;-33
2023/05/24 04:27:55;;;;;;;12.23;4.67;;;13.00;99.90;;;;;;5095022;28;20429;-30
2023/05/24 04:30:23;;;;;;;12.20;3.77;;;12.90;99.90;;;;;;5110244;28;20187;-35
2023/05/24 04:32:50;;;;;;;9.53;4.23;;;12.90;99.90;;;;;;5112900;28;20225;-33
2023/05/24 04:35:17;;;;;;;7.57;3.50;;;12.90;99.90;;;;;;5112417;28;20182;-33
2023/05/24 04:37:43;;;;;;;11.33;4.37;;;12.90;99.90;;;;;;5112963;28;20183;-33
2023/05/24 04:40:10;;;;;;;8.63;4.10;;;13.00;99.90;;;;;;5111639;28;20179;-35
2023/05/24 04:42:36;;;;;;;9.33;4.23;;;12.90;99.90;;;;;;5107458;28;20183;-35
2023/05/24 04:45:02;;;;;;;9.83;4.30;;;13.00;99.90;;;;;;5113580;28;20184;-33
2023/05/24 04:47:28;;;;;;;9.60;4.10;;;12.90;99.90;;;;;;5110164;28;20171;-33
2023/05/24 04:49:54;;;;;;;7.47;4.03;;;13.00;99.90;;;;;;5089950;28;20182;-34
2023/05/24 04:52:20;;;;;;;7.80;3.70;;;13.00;99.90;;;;;;5112575;28;20198;-35
2023/05/24 04:54:48;;;;;;;8.40;3.67;;;12.90;99.90;;;;;;5112987;28;20191;-33
2023/05/24 04:57:14;;;;;;;10.63;4.90;;;12.90;99.90;;;;;;5112928;28;20171;-36
2023/05/24 04:59:40;;;;;;;6.83;3.60;;;12.80;99.90;;;;;;5131842;28;20173;-33
2023/05/24 05:02:06;;;;;;;15.43;4.10;;;12.90;99.90;;;;;;5111324;28;20179;-32
2023/05/24 05:04:31;;;;;;;7.63;3.87;;;12.80;99.90;;;;;;5096313;28;20312;-33
2023/05/24 05:06:57;;;;;;;8.57;4.17;;;12.90;99.90;;;;;;5094607;28;20211;-33
2023/05/24 05:09:23;;;;;;;9.47;4.33;;;12.90;99.90;;;;;;5110696;28;20184;-36
2023/05/24 05:11:49;;;;;;;10.33;3.90;;;12.80;99.90;;;;;;5112414;28;20287;-33
2023/05/24 05:14:15;;;;;;;12.77;4.20;;;12.80;99.90;;;;;;5103422;28;20215;-33
2023/05/24 05:16:41;;;;;;;11.07;4.27;;;12.90;99.90;;;;;;5095712;28;20210;-33
2023/05/24 05:19:07;;;;;;;8.30;4.50;;;12.80;99.90;;;;;;5080616;27;20262;-35
2023/05/24 05:21:35;;;;;;;7.80;3.90;;;12.70;99.90;;;;;;5135080;27;20243;-34
2023/05/24 05:24:02;;;;;;;7.77;4.10;;;12.70;99.90;;;;;;5116052;27;20300;-33
2023/05/24 05:26:28;;;;;;;9.27;3.93;;;12.70;99.90;;;;;;5114982;27;20179;-35
2023/05/24 05:28:54;;;;;;;7.80;4.00;;;12.70;99.90;;;;;;5100428;27;20190;-34
2023/05/24 05:31:22;;;;;;;9.83;4.67;;;12.80;99.90;;;;;;5104919;28;20275;-33
2023/05/24 05:33:49;;;;;;;8.90;4.57;;;12.70;99.90;;;;;;5114406;28;20206;-36
2023/05/24 05:36:15;;;;;;;8.40;3.83;;;12.70;99.90;;;;;;5101511;27;20216;-35
2023/05/24 05:38:42;;;;;;;10.27;4.60;;;12.70;99.90;;;;;;5134981;27;20178;-35
2023/05/24 05:41:08;;;;;;;9.17;4.07;;;12.70;99.90;;;;;;5132777;27;20232;-33
2023/05/24 05:43:34;;;;;;;6.50;3.53;;;12.70;99.90;;;;;;5116062;27;20195;-33
2023/05/24 05:46:00;;;;;;;11.80;5.07;;;12.80;99.90;;;;;;5118546;27;20312;-35
2023/05/24 05:48:26;;;;;;;7.80;4.03;;;12.80;99.90;;;;;;5112488;27;20220;-33
2023/05/24 05:50:52;;;;;;;9.30;4.13;;;12.90;99.90;;;;;;5078860;27;20203;-35
2023/05/24 05:53:17;;;;;;;6.83;3.80;;;12.80;99.90;;;;;;5114632;27;20208;-34
2023/05/24 05:55:43;;;;;;;9.53;4.70;;;12.90;99.90;;;;;;5101934;27;20178;-33
2023/05/24 05:58:10;;;;;;;10.07;4.53;;;12.90;99.90;;;;;;5112230;28;20181;-37
2023/05/24 06:00:37;;;;;;;12.77;4.10;;;12.90;99.90;;;;;;5100910;27;20185;-35
2023/05/24 06:03:02;;;;;;;10.40;4.13;;;13.00;99.90;;;;;;5115707;27;20209;-35
2023/05/24 06:05:28;;;;;;;9.57;4.07;;;12.90;99.90;;;;;;5094802;28;20183;-33
2023/05/24 06:07:54;;;;;;;11.47;4.40;;;12.90;99.90;;;;;;5113777;28;20249;-34
2023/05/24 06:10:20;;;;;;;9.83;4.30;;;12.90;99.90;;;;;;5096329;27;20183;-34
2023/05/24 06:12:46;;;;;;;8.47;4.23;;;12.90;99.90;;;;;;5095673;27;20200;-33
2023/05/24 06:15:12;;;;;;;11.63;4.53;;;12.90;99.90;;;;;;5088313;27;20206;-35
2023/05/24 06:17:40;;;;;;;8.50;4.80;;;12.90;99.90;;;;;;5133823;27;20212;-35
2023/05/24 06:20:12;;;;;;;8.23;4.00;;;12.80;99.90;;;;;;5134031;27;20175;-33
2023/05/24 06:22:38;;;;;;;13.17;4.30;;;12.80;99.90;;;;;;5098279;27;20198;-35
2023/05/24 06:25:05;;;;;;;9.40;4.07;;;12.80;99.90;;;;;;5115648;27;20186;-35
2023/05/24 06:27:31;;;;;;;13.40;4.60;;;12.90;99.90;;;;;;5133705;27;20256;-34
2023/05/24 06:29:56;;;;;;;8.90;4.43;;;13.00;99.90;;;;;;5102266;28;20208;-36
2023/05/24 06:32:22;;;;;;;11.87;4.67;;;13.00;99.90;;;;;;5121456;27;20203;-34
2023/05/24 06:34:49;;;;;;;10.57;4.57;;;13.00;99.90;;;;;;5096503;27;20191;-34
2023/05/24 06:37:15;;;;;;;7.20;4.30;;;13.10;99.90;;;;;;5126757;27;20187;-33
2023/05/24 06:39:41;;;;;;;12.07;4.87;;;13.20;99.90;;;;;;5112648;27;20266;-37
2023/05/24 06:42:09;;;;;;;11.37;4.40;;;13.20;99.90;;;;;;5109330;28;20172;-33
2023/05/24 06:44:36;;;;;;;7.27;4.07;;;13.10;99.90;;;;;;5096096;27;20234;-32
2023/05/24 06:47:04;;;;;;;7.80;3.90;;;13.00;99.90;;;;;;5085670;28;20184;-33
2023/05/24 06:49:30;;;;;;;10.07;4.40;;;13.00;99.90;;;;;;5104637;27;20199;-35
2023/05/24 06:51:56;;;;;;;7.93;4.03;;;13.10;99.90;;;;;;5118196;27;20242;-36
2023/05/24 06:54:22;;;;;;;10.27;4.60;;;13.10;99.90;;;;;;5102322;27;20332;-33
2023/05/24 06:56:48;;;;;;;7.53;4.10;;;13.30;99.90;;;;;;5086815;27;20176;-33
2023/05/24 06:59:13;;;;;;;11.57;4.37;;;13.40;99.90;;;;;;5100519;27;20167;-33
2023/05/24 07:01:41;;;;;;;11.07;4.23;;;13.40;99.90;;;;;;5126989;27;20265;-35
2023/05/24 07:04:10;;;;;;;9.30;4.10;;;13.50;99.90;;;;;;5130325;27;20263;-34
2023/05/24 07:06:36;;;;;;;10.33;4.30;;;13.60;99.90;;;;;;5118691;27;20172;-35
2023/05/24 07:09:03;;;;;;;7.70;3.83;;;13.70;99.90;;;;;;5105865;27;20182;-34
2023/05/24 07:11:30;;;;;;;9.70;4.03;;;13.70;99.90;;;;;;5139129;27;20210;-35
2023/05/24 07:13:56;;;;;;;5.13;3.87;;;13.90;99.90;;;;;;5100960;27;20207;-33
2023/05/24 07:16:22;;;;;;;15.30;4.80;;;13.90;99.90;;;;;;5120150;27;20179;-33
2023/05/24 07:18:48;;;;;;;8.67;4.17;;;14.00;99.90;;;;;;5139423;27;20201;-34
2023/05/24 07:21:14;;;;;;;11.70;4.67;;;14.00;99.90;;;;;;5119865;27;20170;-34
2023/05/24 07:23:39;;;;;;;11.20;4.23;;;13.90;99.90;;;;;;5138857;27;20571;-33
2023/05/24 07:26:05;;;;;;;13.47;4.63;;;13.90;99.90;;;;;;5104506;27;20177;-33
2023/05/24 07:28:31;;;;;;;9.93;4.47;;;13.90;99.90;;;;;;5123414;27;20183;-32
2023/05/24 07:30:57;;;;;;;6.30;3.97;;;13.80;99.90;;;;;;5138186;27;20256;-33
2023/05/24 07:33:23;;;;;;;11.53;4.50;;;13.80;99.90;;;;;;5106910;27;20191;-33
2023/05/24 07:35:50;;;;;;;8.43;4.50;;;13.90;99.90;;;;;;5139170;27;20220;-34
2023/05/24 07:38:17;;;;;;;10.27;4.30;;;13.80;99.90;;;;;;5138983;27;20185;-33
2023/05/24 07:40:43;;;;;;;11.57;4.53;;;13.90;99.90;;;;;;5122059;27;20168;-35
2023/05/24 07:43:09;;;;;;;11.67;4.80;;;13.90;99.90;;;;;;5140660;27;20210;-33
2023/05/24 07:45:34;;;;;;;11.30;4.57;;;13.90;99.90;;;;;;5113069;27;20194;-33
2023/05/24 07:48:00;;;;;;;11.10;4.33;;;13.80;99.90;;;;;;5120339;27;20182;-33
2023/05/24 07:50:27;;;;;;;7.83;3.90;;;13.80;99.90;;;;;;5139994;27;20193;-33
2023/05/24 07:52:55;;;;;;;10.97;4.27;;;13.90;99.90;;;;;;5119645;27;20216;-33
2023/05/24 07:55:21;;;;;;;8.30;3.80;;;14.00;99.90;;;;;;5121592;27;20171;-35
2023/05/24 07:57:47;;;;;;;8.50;4.00;;;14.10;99.90;;;;;;5119927;27;20290;-32
2023/05/24 08:00:15;;;;;;;7.87;4.20;;;14.30;99.90;;;;;;5122215;27;20206;-33
2023/05/24 08:02:45;;;;;;;7.23;4.20;;;14.30;99.90;;;;;;5139505;27;20250;-33
2023/05/24 08:05:15;;;;;;;7.93;4.60;;;14.20;99.90;;;;;;5121184;27;20649;-33
2023/05/24 08:07:41;;;;;;;12.30;4.50;;;14.20;99.90;;;;;;5118973;27;20183;-35
2023/05/24 08:10:11;;;;;;;11.53;4.40;;;14.20;99.90;;;;;;5109551;28;20184;-31
2023/05/24 08:12:37;;;;;;;7.93;4.20;;;14.10;99.90;;;;;;5128466;27;20205;-33
2023/05/24 08:15:04;;;;;;;11.50;4.50;;;14.00;99.90;;;;;;5118814;28;20195;-36
2023/05/24 08:17:30;;;;;;;9.50;4.43;;;13.90;99.90;;;;;;5104076;28;20186;-32
2023/05/24 08:19:57;;;;;;;8.57;4.03;;;13.90;99.90;;;;;;5096582;28;20176;-36
2023/05/24 08:22:23;;;;;;;7.27;4.27;;;14.00;99.90;;;;;;5091181;28;20218;-33
2023/05/24 08:24:51;;;;;;;8.83;4.13;;;14.00;99.90;;;;;;5075323;28;20206;-34
2023/05/24 08:27:16;;;;;;;8.00;4.20;;;14.10;99.90;;;;;;5119925;27;20190;-33
2023/05/24 08:29:42;;;;;;;8.57;4.20;;;14.20;99.90;;;;;;5117968;27;20175;-36
2023/05/24 08:32:08;;;;;;;10.10;4.77;;;14.20;99.90;;;;;;5118905;28;20210;-35
2023/05/24 08:34:36;;;;;;;11.73;4.50;;;13.90;99.90;;;;;;5103073;28;20290;-33
2023/05/24 08:37:02;;;;;;;12.00;4.77;;;13.80;99.90;;;;;;5123812;27;20222;-33
2023/05/24 08:39:30;;;;;;;9.53;4.73;;;13.60;99.90;;;;;;5127442;27;20212;-32
2023/05/24 08:41:58;;;;;;;12.47;4.80;;;13.70;99.90;;;;;;5136197;27;20195;-31
2023/05/24 08:44:24;;;;;;;9.43;4.50;;;13.70;99.90;;;;;;5106066;27;20249;-35
2023/05/24 08:46:52;;;;;;;13.57;5.00;;;13.70;99.90;;;;;;5108654;28;20184;-32
2023/05/24 08:49:20;;;;;;;9.87;4.67;;;13.60;99.90;;;;;;5103597;27;20195;-35
2023/05/24 08:51:46;;;;;;;15.37;5.00;;;13.60;99.90;;;;;;5108054;27;20210;-33
2023/05/24 08:54:13;;;;;;;8.77;4.53;;;13.60;99.90;;;;;;5145024;27;20223;-36
2023/05/24 08:56:40;;;;;;;12.23;4.47;;;13.60;99.90;;;;;;5125285;27;20175;-33
2023/05/24 08:59:07;;;;;;;10.60;4.50;;;13.60;99.90;;;;;;5135565;27;20175;-34
2023/05/24 09:01:36;;;;;;;11.10;5.10;;;13.60;99.90;;;;;;5104656;28;20194;-35
2023/05/24 09:04:05;;;;;;;8.10;4.50;;;13.70;99.90;;;;;;5098550;27;20207;-32
2023/05/24 09:06:31;;;;;;;11.73;4.60;;;13.80;99.90;;;;;;5120266;27;20248;-35
2023/05/24 09:08:59;;;;;;;10.87;5.50;;;13.90;99.90;;;;;;5095959;28;20184;-33
2023/05/24 09:11:27;;;;;;;9.80;4.43;;;14.00;99.90;;;;;;5096486;28;20238;-33
2023/05/24 09:13:54;;;;;;;8.70;4.90;;;14.10;99.90;;;;;;5123471;27;20215;-33
2023/05/24 09:16:21;;;;;;;10.93;4.50;;;14.20;99.90;;;;;;5123673;27;20203;-36
2023/05/24 09:18:46;;;;;;;8.13;4.00;;;14.30;99.90;;;;;;5125565;27;20180;-33
2023/05/24 09:21:12;;;;;;;8.73;5.20;;;14.40;99.90;;;;;;5133459;27;20189;-36
2023/05/24 09:23:40;;;;;;;8.77;4.63;;;14.40;99.90;;;;;;5096320;28;20195;-39
2023/05/24 09:26:10;;;;;;;9.80;5.33;;;14.60;99.90;;;;;;5099362;27;20226;-35
2023/05/24 09:28:36;;;;;;;8.70;4.90;;;14.70;99.90;;;;;;5119740;27;20194;-34
2023/05/24 09:31:03;;;;;;;9.70;4.90;;;14.70;99.90;;;;;;5136500;27;20186;-34
2023/05/24 09:33:31;;;;;;;12.37;5.07;;;14.80;99.90;;;;;;5136899;27;20198;-33
2023/05/24 09:35:58;;;;;;;10.73;4.73;;;14.80;99.90;;;;;;5098343;27;20176;-35
2023/05/24 09:38:24;;;;;;;10.13;5.43;;;14.80;99.90;;;;;;5126236;27;20219;-35
2023/05/24 09:41:03;;;;;;;14.30;4.93;;;14.90;99.90;;;;;;5130560;27;20167;-34
2023/05/24 09:43:31;;;;;;;12.30;4.93;;;15.00;99.90;;;;;;5111460;27;20234;-33
2023/05/24 09:45:58;;;;;;;11.23;4.77;;;15.10;99.90;;;;;;5101648;28;20186;-33
2023/05/24 09:48:25;;;;;;;15.27;4.90;;;15.10;99.90;;;;;;5119609;27;20183;-34
2023/05/24 09:51:06;;;;;;;8.77;4.80;;;15.10;99.90;;;;;;5129236;27;20267;-33
2023/05/24 09:53:35;;;;;;;11.17;5.20;;;15.00;99.90;;;;;;5109120;27;20218;-31
2023/05/24 09:56:07;;;;;;;8.13;4.97;;;14.90;99.90;;;;;;5094817;27;20176;-33
2023/05/24 09:58:33;;;;;;;13.90;4.87;;;15.10;99.90;;;;;;5101561;27;20164;-36
2023/05/24 10:01:07;;;;;;;10.70;5.30;;;14.90;99.90;;;;;;5121870;27;20167;-35
2023/05/24 10:03:33;;;;;;;12.57;4.97;;;14.90;99.90;;;;;;5121084;27;20195;-34
2023/05/24 10:06:01;;;;;;;12.60;4.80;;;14.90;99.90;;;;;;5125064;27;20208;-36
2023/05/24 10:08:26;;;;;;;11.90;5.17;;;14.80;99.90;;;;;;5124260;27;20179;-33
2023/05/24 10:10:54;;;;;;;11.97;5.57;;;14.90;99.90;;;;;;5101629;27;20239;-33
2023/05/24 10:13:22;;;;;;;11.87;4.93;;;14.90;99.90;;;;;;5097369;27;20211;-33
2023/05/24 10:15:48;;;;;;;8.37;4.40;;;14.80;99.90;;;;;;5106907;27;20220;-34
2023/05/24 10:18:13;;;;;;;10.60;4.93;;;14.60;99.90;;;;;;5103322;28;20180;-35
2023/05/24 10:20:39;;;;;;;9.70;4.67;;;14.60;99.90;;;;;;5104771;27;20187;-33
2023/05/24 10:23:09;;;;;;;11.43;4.77;;;14.60;99.90;;;;;;5103347;27;20184;-35
2023/05/24 10:25:40;;;;;;;10.00;4.70;;;14.70;99.90;;;;;;5123706;27;20225;-36
2023/05/24 10:28:12;;;;;;;9.23;4.20;;;14.80;99.90;;;;;;5131387;27;20175;-33
2023/05/24 10:30:53;;;;;;;10.03;4.20;;;14.70;99.90;;;;;;5122233;27;20225;-36
2023/05/24 10:33:22;;;;;;;12.43;4.90;;;14.80;99.90;;;;;;5103725;27;20199;-36
2023/05/24 10:35:48;;;;;;;8.60;4.33;;;14.80;99.90;;;;;;5094768;28;20175;-32
2023/05/24 10:38:14;;;;;;;11.17;4.50;;;14.80;99.90;;;;;;5094776;28;20172;-33
2023/05/24 10:40:43;;;;;;;9.73;4.60;;;14.70;99.90;;;;;;5103220;27;20185;-34
2023/05/24 10:43:09;;;;;;;13.20;4.53;;;14.70;99.90;;;;;;5109839;27;20214;-33
2023/05/24 10:45:39;;;;;;;8.97;4.73;;;14.70;99.90;;;;;;5097592;27;20183;-39
2023/05/24 10:48:28;;;;;;;15.37;4.70;;;14.80;99.90;;;;;;5133238;27;20179;-32
2023/05/24 10:50:54;;;;;;;7.87;4.00;;;14.60;99.90;;;;;;5101222;27;20175;-33
2023/05/24 10:53:25;;;;;;;9.03;4.23;;;14.70;99.90;;;;;;5106885;27;20195;-35
2023/05/24 10:56:05;;;;;;;10.80;4.90;;;14.70;99.90;;;;;;5126319;27;20207;-35
2023/05/24 10:58:36;;;;;;;11.00;3.97;;;14.70;99.90;;;;;;5105524;27;20196;-32
2023/05/24 11:01:13;;;;;;;11.83;4.23;;;14.80;99.90;;;;;;5120888;27;20190;-33
2023/05/24 11:03:43;;;;;;;10.77;4.37;;;14.90;99.90;;;;;;5127032;27;20236;-33
2023/05/24 11:06:09;;;;;;;9.23;4.00;;;14.90;99.90;;;;;;5107854;27;20179;-32
2023/05/24 11:08:42;;;;;;;7.93;4.17;;;14.90;99.90;;;;;;5117034;27;20213;-33
2023/05/24 11:11:19;;;;;;;15.57;4.60;;;14.90;99.90;;;;;;5089933;27;20175;-32
2023/05/24 11:13:47;;;;;;;11.77;4.80;;;14.60;99.90;;;;;;5105523;27;20215;-35
2023/05/24 11:16:33;;;;;;;9.50;4.90;;;14.40;99.90;;;;;;5104339;28;20224;-35
2023/05/24 11:19:20;;;;;;;14.13;4.53;;;14.20;99.90;;;;;;5116660;27;20172;-35
2023/05/24 11:21:52;;;;;;;11.57;5.13;;;14.20;99.90;;;;;;5099875;27;20188;-33
2023/05/24 11:24:18;;;;;;;12.93;4.77;;;14.20;99.90;;;;;;5086570;27;20200;-35
2023/05/24 11:26:45;;;;;;;10.73;4.60;;;13.90;99.90;;;;;;5120405;27;20187;-33
2023/05/24 11:29:20;;;;;;;14.43;5.00;;;13.80;99.90;;;;;;5104896;27;20231;-36
2023/05/24 11:32:01;;;;;;;10.77;5.27;;;13.70;99.90;;;;;;5121586;27;20194;-34
2023/05/24 11:34:26;;;;;;;11.73;4.73;;;13.50;99.90;;;;;;5084104;27;20187;-35
2023/05/24 11:36:54;;;;;;;10.07;5.30;;;13.70;99.90;;;;;;5086426;27;20192;-36
2023/05/24 11:39:19;;;;;;;8.70;4.80;;;13.60;99.90;;;;;;5096998;28;20638;-33
2023/05/24 11:41:46;;;;;;;10.20;4.60;;;13.30;99.90;;;;;;5093928;28;20191;-33
2023/05/24 11:44:17;;;;;;;10.73;5.10;;;13.40;99.90;;;;;;5098395;28;20227;-33
2023/05/24 11:46:43;;;;;;;16.33;5.60;;;13.30;99.90;;;;;;5100507;28;20260;-33
2023/05/24 11:49:13;;;;;;;13.97;5.37;;;13.10;99.90;;;;;;5108140;27;20258;-36
2023/05/24 11:51:39;;;;;;;13.30;5.20;;;13.20;99.90;;;;;;5123852;27;20201;-32
2023/05/24 11:54:05;;;;;;;13.73;4.33;;;13.20;99.90;;;;;;5113603;27;20209;-33
2023/05/24 11:56:31;;;;;;;15.83;5.17;;;13.30;99.90;;;;;;5097463;28;20180;-33
2023/05/24 11:59:08;;;;;;;11.67;5.20;;;13.30;99.90;;;;;;5102180;27;20223;-32
2023/05/24 12:01:34;;;;;;;12.77;5.20;;;13.20;99.90;;;;;;5106961;27;20180;-33
2023/05/24 12:04:00;;;;;;;12.90;5.67;;;13.20;99.90;;;;;;5131600;27;20199;-33
2023/05/24 12:06:40;;;;;;;10.03;4.60;;;13.20;99.90;;;;;;5129345;27;20179;-34
2023/05/24 12:09:09;;;;;;;10.00;4.10;;;13.30;99.90;;;;;;5124699;27;20182;-36
2023/05/24 12:11:40;;;;;;;9.40;4.40;;;13.40;99.90;;;;;;5108482;27;20234;-35
2023/05/24 12:14:14;;;;;;;12.13;4.27;;;13.50;99.90;;;;;;5120341;27;20218;-33
2023/05/24 12:16:42;;;;;;;12.07;4.70;;;13.50;99.90;;;;;;5134505;27;20356;-33
2023/05/24 12:19:15;;;;;;;9.07;4.60;;;13.50;99.90;;;;;;5140933;27;20178;-33
2023/05/24 12:21:41;;;;;;;9.47;4.87;;;13.70;99.90;;;;;;5141181;27;20175;-33
2023/05/24 12:24:13;;;;;;;9.67;4.37;;;13.90;99.90;;;;;;5121205;28;20228;-33
2023/05/24 12:26:49;;;;;;;9.83;4.23;;;14.20;99.90;;;;;;5129659;27;20228;-36
2023/05/24 12:29:16;;;;;;;11.90;4.40;;;14.40;99.90;;;;;;5148136;27;20185;-34
2023/05/24 12:31:43;;;;;;;14.57;4.50;;;14.50;99.90;;;;;;5144823;27;20206;-36
2023/05/24 12:34:17;;;;;;;11.70;4.20;;;14.80;99.90;;;;;;5117244;27;20194;-34
2023/05/24 12:36:43;;;;;;;7.37;3.87;;;15.10;99.90;;;;;;5109807;27;20216;-36
2023/05/24 12:39:19;;;;;;;10.17;4.10;;;15.40;99.90;;;;;;5113004;27;20175;-35
2023/05/24 12:41:49;;;;;;;10.00;4.37;;;15.70;99.90;;;;;;5104544;27;20711;-35
2023/05/24 12:44:15;;;;;;;14.63;4.70;;;15.90;99.90;;;;;;5101717;28;20199;-35
2023/05/24 12:46:41;;;;;;;11.03;4.60;;;16.30;99.90;;;;;;5100299;27;20188;-33